Time;durP1;ratioP1;P1;durP2;ratioP2;P2;SDS_P1;SDS_P2;PMS_P1;PMS_P2;Temp;Humidity;BMP_temperature;BMP_pressure;BME280_temperature;BME280_humidity;BME280_pressure;Samples;Min_cycle;Max_cycle;Signal;HPM_P1;HPM_P2
2023/03/10 00:00:44;;;;;;;36.88;20.48;;;2.50;99.90;;;;;;5052024;28;20045;-68
2023/03/10 00:03:10;;;;;;;33.25;18.42;;;2.60;99.90;;;;;;5052098;28;20118;-69
2023/03/10 00:05:37;;;;;;;35.80;19.77;;;2.30;99.90;;;;;;5051577;28;20084;-69
2023/03/10 00:08:04;;;;;;;33.45;18.70;;;;;;;;;;5051890;28;20052;-69
2023/03/10 00:10:29;;;;;;;;;;;2.30;99.90;;;;;;5051884;28;20049;-69
2023/03/10 00:12:55;;;;;;;33.40;17.65;;;1.90;99.90;;;;;;5051846;28;20357;-68
2023/03/10 00:15:22;;;;;;;32.00;17.08;;;;;;;;;;5051742;28;20198;-70
2023/03/10 00:17:54;;;;;;;31.73;17.80;;;;;;;;;;5051675;28;20794;-68
2023/03/10 00:20:20;;;;;;;31.17;16.77;;;;;;;;;;5051522;28;20056;-68
2023/03/10 00:22:47;;;;;;;26.50;15.23;;;;;;;;;;5050504;28;20049;-69
2023/03/10 00:25:14;;;;;;;27.38;15.65;;;1.90;99.90;;;;;;5051550;28;20427;-68
2023/03/10 00:27:40;;;;;;;29.42;16.00;;;2.00;99.90;;;;;;5051561;28;20412;-69
2023/03/10 00:30:06;;;;;;;29.15;15.73;;;2.30;99.90;;;;;;5051338;28;20436;-69
2023/03/10 00:32:32;;;;;;;;;;;;;;;;;;5050618;28;20056;-68
2023/03/10 00:34:58;;;;;;;30.02;16.60;;;;;;;;;;5051319;28;19925;-69
2023/03/10 00:37:24;;;;;;;27.45;15.18;;;;;;;;;;5049722;28;20099;-68
2023/03/10 00:39:51;;;;;;;27.10;15.57;;;;;;;;;;5051498;28;20562;-69
2023/03/10 00:42:17;;;;;;;31.27;16.35;;;1.60;99.90;;;;;;5051218;28;20088;-68
2023/03/10 00:44:43;;;;;;;31.05;17.05;;;2.20;99.90;;;;;;5051307;28;20106;-70
2023/03/10 00:47:09;;;;;;;32.00;17.10;;;;;;;;;;5050123;28;20503;-69
2023/03/10 00:49:35;;;;;;;32.00;17.63;;;2.30;99.90;;;;;;5050715;28;20045;-68
2023/03/10 00:52:00;;;;;;;29.55;16.98;;;2.10;99.90;;;;;;5051178;28;20383;-68
2023/03/10 00:54:26;;;;;;;31.83;16.42;;;;;;;;;;5050928;28;20485;-68
2023/03/10 00:56:52;;;;;;;31.70;18.55;;;;;;;;;;5051396;28;20048;-68
2023/03/10 00:59:18;;;;;;;33.58;18.88;;;;;;;;;;5050768;28;20044;-70
2023/03/10 01:01:44;;;;;;;32.33;18.40;;;;;;;;;;5051235;28;20449;-69
2023/03/10 01:04:15;;;;;;;32.28;19.17;;;;;;;;;;5050715;28;20507;-68
2023/03/10 01:06:43;;;;;;;37.47;20.10;;;;;;;;;;5051079;28;20126;-68
2023/03/10 01:09:08;;;;;;;32.97;19.00;;;2.40;99.90;;;;;;5050938;28;20056;-72
2023/03/10 01:11:35;;;;;;;32.75;18.13;;;;;;;;;;5051011;28;20041;-68
2023/03/10 01:14:03;;;;;;;34.05;18.00;;;;;;;;;;5049705;28;20075;-67
2023/03/10 01:16:29;;;;;;;35.15;19.10;;;;;;;;;;5051029;28;20517;-70
2023/03/10 01:18:55;;;;;;;29.20;17.35;;;1.90;99.90;;;;;;5050583;28;20056;-69
2023/03/10 01:21:22;;;;;;;32.92;18.83;;;;;;;;;;5050700;28;20489;-68
2023/03/10 01:23:48;;;;;;;34.20;18.88;;;;;;;;;;5051017;28;20114;-68
2023/03/10 01:26:14;;;;;;;30.73;17.80;;;1.60;99.90;;;;;;5049924;28;20059;-70
2023/03/10 01:28:41;;;;;;;30.02;16.80;;;;;;;;;;5051044;28;20049;-68
2023/03/10 01:31:08;;;;;;;28.85;16.67;;;;;;;;;;5050745;28;20041;-68
2023/03/10 01:33:35;;;;;;;31.20;18.08;;;1.80;99.90;;;;;;5050674;28;20111;-68
2023/03/10 01:36:06;;;;;;;33.58;19.05;;;1.90;99.90;;;;;;5054486;28;20132;-68
2023/03/10 01:38:32;;;;;;;30.48;18.17;;;;;;;;;;5054658;28;20092;-68
2023/03/10 01:40:58;;;;;;;31.70;17.80;;;2.10;99.90;;;;;;5053590;28;20556;-68
2023/03/10 01:43:31;;;;;;;32.58;17.85;;;;;;;;;;5054739;28;20132;-68
2023/03/10 01:45:57;;;;;;;29.92;17.48;;;;;;;;;;5054519;28;20041;-68
2023/03/10 01:48:23;;;;;;;27.65;16.02;;;;;;;;;;5054408;28;20433;-68
2023/03/10 01:50:53;;;;;;;29.17;17.25;;;1.90;99.90;;;;;;5054615;28;20107;-69
2023/03/10 01:53:19;;;;;;;29.17;17.00;;;;;;;;;;5053552;28;20048;-70
2023/03/10 01:55:51;;;;;;;28.45;16.63;;;2.40;99.90;;;;;;5054445;28;20051;-68
2023/03/10 01:58:19;;;;;;;29.23;17.08;;;2.30;99.90;;;;;;5054491;28;20099;-69
2023/03/10 02:00:45;;;;;;;28.17;16.20;;;;;;;;;;5054074;28;20456;-69
2023/03/10 02:03:26;;;;;;;29.27;16.63;;;2.40;99.90;;;;;;5054266;28;20064;-68
2023/03/10 02:05:55;;;;;;;27.70;16.02;;;;;;;;;;5054398;28;20056;-69
2023/03/10 02:08:22;;;;;;;25.92;14.57;;;;;;;;;;5054280;28;20091;-68
2023/03/10 02:10:50;;;;;;;27.30;15.98;;;2.50;99.90;;;;;;5054187;28;20048;-68
2023/03/10 02:13:16;;;;;;;28.98;15.95;;;;;;;;;;5054021;28;20087;-68
2023/03/10 02:15:42;;;;;;;28.73;16.98;;;;;;;;;;5053736;28;20052;-68
2023/03/10 02:18:10;;;;;;;;;;;2.50;99.90;;;;;;5053400;28;20064;-69
2023/03/10 02:20:43;;;;;;;30.83;17.48;;;;;;;;;;5054116;28;19928;-67
2023/03/10 02:23:10;;;;;;;32.08;18.75;;;;;;;;;;5052883;28;20055;-69
2023/03/10 02:25:42;;;;;;;31.10;16.67;;;;;;;;;;5053878;28;20052;-69
2023/03/10 02:28:08;;;;;;;28.88;17.23;;;;;;;;;;5053874;28;20166;-68
2023/03/10 02:30:43;;;;;;;29.13;17.42;;;;;;;;;;5053601;28;20052;-67
2023/03/10 02:33:29;;;;;;;32.20;18.45;;;1.90;99.90;;;;;;5053974;28;20049;-70
2023/03/10 02:36:15;;;;;;;29.83;16.57;;;2.10;99.90;;;;;;5052614;28;20060;-70
2023/03/10 02:38:41;;;;;;;31.35;16.75;;;1.80;99.90;;;;;;5053723;28;20057;-69
2023/03/10 02:41:33;;;;;;;31.55;18.00;;;;;;;;;;5053729;28;20392;-68
2023/03/10 02:44:03;;;;;;;29.95;17.58;;;2.80;99.90;;;;;;5052151;28;20053;-69
2023/03/10 02:46:29;;;;;;;34.47;19.60;;;;;;;;;;5052591;28;20049;-68
2023/03/10 02:48:59;;;;;;;33.92;18.98;;;1.90;99.90;;;;;;5052150;28;20464;-70
2023/03/10 02:51:32;;;;;;;30.70;18.20;;;2.20;99.90;;;;;;5053710;28;20052;-69
2023/03/10 02:53:59;;;;;;;34.30;17.73;;;;;;;;;;5053779;28;20470;-68
2023/03/10 02:56:26;;;;;;;31.42;17.55;;;1.80;99.90;;;;;;5053758;28;20054;-72
2023/03/10 02:58:52;;;;;;;30.15;17.38;;;;;;;;;;5053617;28;20049;-68
2023/03/10 03:01:18;;;;;;;31.98;17.88;;;2.40;99.90;;;;;;5053398;28;20481;-69
2023/03/10 03:03:44;;;;;;;32.92;17.42;;;;;;;;;;5053628;28;20106;-68
2023/03/10 03:06:10;;;;;;;31.85;17.70;;;;;;;;;;5052399;28;20783;-68
2023/03/10 03:08:36;;;;;;;31.45;18.10;;;;;;;;;;5053479;28;20417;-70
2023/03/10 03:11:02;;;;;;;28.83;18.05;;;;;;;;;;5053359;28;20045;-68
2023/03/10 03:13:28;;;;;;;29.80;17.38;;;2.30;99.90;;;;;;5053020;28;20119;-68
2023/03/10 03:15:54;;;;;;;30.63;17.98;;;;;;;;;;5053204;28;20449;-68
2023/03/10 03:18:20;;;;;;;32.50;17.50;;;2.40;99.90;;;;;;5053324;28;20139;-69
2023/03/10 03:20:46;;;;;;;30.58;18.38;;;;;;;;;;5052141;28;20132;-69
2023/03/10 03:23:12;;;;;;;29.95;17.10;;;;;;;;;;5053146;28;20135;-69
2023/03/10 03:25:39;;;;;;;29.63;17.17;;;;;;;;;;5053063;28;20047;-68
2023/03/10 03:28:06;;;;;;;28.40;17.95;;;;;;;;;;5052713;28;20044;-68
2023/03/10 03:30:33;;;;;;;28.30;18.25;;;;;;;;;;5052734;28;20526;-68
2023/03/10 03:32:59;;;;;;;;;;;;;;;;;;5053613;28;20449;-69
2023/03/10 03:35:28;;;;;;;28.17;17.27;;;2.40;99.90;;;;;;5053173;28;19967;-68
2023/03/10 03:37:54;;;;;;;25.33;15.68;;;;;;;;;;5052888;28;20052;-68
2023/03/10 03:40:21;;;;;;;;;;;2.40;99.90;;;;;;5053225;28;20114;-69
2023/03/10 03:42:49;;;;;;;27.77;16.10;;;2.00;99.90;;;;;;5052519;28;19920;-69
2023/03/10 03:45:16;;;;;;;29.45;17.45;;;;;;;;;;5052362;28;20135;-69
2023/03/10 03:47:42;;;;;;;30.10;16.92;;;;;;;;;;5052700;28;20053;-71
2023/03/10 03:50:10;;;;;;;29.08;17.10;;;2.50;99.90;;;;;;5052686;28;20044;-70
2023/03/10 03:52:36;;;;;;;31.23;17.42;;;;;;;;;;5052618;28;20049;-68
2023/03/10 03:55:03;;;;;;;29.13;16.92;;;2.30;99.90;;;;;;5052689;28;20091;-71
2023/03/10 03:57:29;;;;;;;30.10;17.63;;;;;;;;;;5051957;28;20061;-68
2023/03/10 03:59:55;;;;;;;28.45;16.90;;;;;;;;;;5052304;28;20048;-80
2023/03/10 04:02:21;;;;;;;33.70;17.60;;;;;;;;;;5051188;28;20109;-71
2023/03/10 04:04:47;;;;;;;29.63;17.20;;;;;;;;;;5051175;28;20408;-68
2023/03/10 04:07:13;;;;;;;32.17;18.10;;;2.40;99.90;;;;;;5052205;28;20052;-68
2023/03/10 04:09:40;;;;;;;29.50;17.92;;;;;;;;;;5052002;28;20052;-70
2023/03/10 04:12:07;;;;;;;33.10;18.15;;;2.00;99.90;;;;;;5050726;28;20049;-68
2023/03/10 04:14:33;;;;;;;33.80;18.27;;;;;;;;;;5050724;28;20044;-69
2023/03/10 04:16:59;;;;;;;32.55;18.65;;;;;;;;;;5052404;28;20423;-68
2023/03/10 04:19:25;;;;;;;43.17;22.80;;;;;;;;;;5052159;28;20052;-69
2023/03/10 04:21:51;;;;;;;42.75;22.17;;;;;;;;;;5052171;28;20053;-71
2023/03/10 04:24:18;;;;;;;44.58;23.30;;;;;;;;;;5051823;28;20550;-68
2023/03/10 04:26:45;;;;;;;48.00;24.67;;;;;;;;;;5051551;28;20556;-68
2023/03/10 04:29:11;;;;;;;48.38;23.88;;;1.80;99.90;;;;;;5051617;28;20060;-69
2023/03/10 04:31:37;;;;;;;49.17;25.70;;;1.90;99.90;;;;;;5051948;28;20071;-68
2023/03/10 04:34:03;;;;;;;53.90;26.20;;;;;;;;;;5050809;28;20041;-70
2023/03/10 04:36:29;;;;;;;56.40;26.77;;;;;;;;;;5051936;28;20040;-68
2023/03/10 04:38:55;;;;;;;58.60;28.13;;;;;;;;;;5051731;28;20068;-69
2023/03/10 04:41:21;;;;;;;;;;;;;;;;;;5050847;28;20068;-70
2023/03/10 04:43:47;;;;;;;63.03;29.33;;;;;;;;;;5050605;28;19920;-68
2023/03/10 04:46:14;;;;;;;65.13;31.73;;;;;;;;;;5051670;28;20091;-69
2023/03/10 04:48:40;;;;;;;59.40;29.45;;;;;;;;;;5051767;28;20049;-68
2023/03/10 04:51:08;;;;;;;56.67;27.33;;;2.00;99.90;;;;;;5050746;28;20099;-69
2023/03/10 04:53:35;;;;;;;57.28;28.85;;;2.30;99.90;;;;;;5051479;28;20134;-69
2023/03/10 04:56:02;;;;;;;52.50;26.80;;;;;;;;;;5051210;28;20053;-69
2023/03/10 04:58:28;;;;;;;55.75;29.08;;;2.50;99.90;;;;;;5051318;28;20045;-69
2023/03/10 05:00:54;;;;;;;55.33;29.38;;;;;;;;;;5051736;28;20059;-69
2023/03/10 05:03:19;;;;;;;52.30;26.48;;;2.40;99.90;;;;;;5051490;28;20047;-70
2023/03/10 05:05:46;;;;;;;55.03;27.02;;;;;;;;;;5051477;28;20045;-68
2023/03/10 05:08:12;;;;;;;59.88;27.55;;;;;;;;;;5051364;28;20145;-70
2023/03/10 05:10:42;;;;;;;52.10;25.88;;;;;;;;;;5054204;28;20045;-73
2023/03/10 05:13:11;;;;;;;48.45;24.00;;;;;;;;;;5055516;28;20496;-69
2023/03/10 05:15:38;;;;;;;46.58;23.05;;;;;;;;;;5055525;28;20053;-71
2023/03/10 05:18:04;;;;;;;47.90;24.05;;;;;;;;;;5054264;28;20405;-69
2023/03/10 05:20:30;;;;;;;;;;;2.50;99.90;;;;;;5055867;28;20041;-68
2023/03/10 05:22:56;;;;;;;41.83;21.27;;;;;;;;;;5054184;28;19974;-70
2023/03/10 05:25:22;;;;;;;40.08;20.95;;;;;;;;;;5053884;28;20048;-72
2023/03/10 05:27:48;;;;;;;40.58;20.83;;;;;;;;;;5055354;28;20045;-69
2023/03/10 05:30:15;;;;;;;41.65;20.50;;;;;;;;;;5055268;28;20394;-72
2023/03/10 05:32:42;;;;;;;44.88;22.10;;;;;;;;;;5055160;28;20081;-69
2023/03/10 05:35:09;;;;;;;40.05;21.83;;;1.70;99.90;;;;;;5055174;28;20045;-72
2023/03/10 05:37:38;;;;;;;39.83;19.92;;;;;;;;;;5054779;28;20520;-70
2023/03/10 05:40:06;;;;;;;40.92;21.27;;;;;;;;;;5055006;28;20060;-72
2023/03/10 05:42:32;;;;;;;41.78;20.92;;;;;;;;;;5055057;28;20056;-70
2023/03/10 05:44:58;;;;;;;45.20;20.55;;;;;;;;;;5053799;28;20511;-74
2023/03/10 05:47:24;;;;;;;42.17;20.55;;;;;;;;;;5054769;28;20485;-71
2023/03/10 05:49:50;;;;;;;42.78;20.85;;;;;;;;;;5054718;28;20056;-70
2023/03/10 05:52:17;;;;;;;45.55;22.75;;;;;;;;;;5054529;28;20111;-69
2023/03/10 05:54:43;;;;;;;44.22;20.77;;;;;;;;;;5054663;28;20049;-71
2023/03/10 05:57:09;;;;;;;40.60;20.40;;;;;;;;;;5054978;28;20056;-69
2023/03/10 05:59:36;;;;;;;46.05;22.67;;;;;;;;;;5054823;28;20690;-69
2023/03/10 06:02:01;;;;;;;;;;;1.30;99.90;;;;;;5055191;28;20055;-70
2023/03/10 06:04:31;;;;;;;43.60;21.17;;;;;;;;;;5053318;28;19924;-72
2023/03/10 06:06:59;;;;;;;48.42;21.08;;;;;;;;;;5054026;28;20061;-70
2023/03/10 06:09:25;;;;;;;52.53;21.52;;;;;;;;;;5054626;28;20131;-71
2023/03/10 06:11:51;;;;;;;45.25;21.27;;;;;;;;;;5054497;28;20460;-73
2023/03/10 06:14:17;;;;;;;48.00;21.70;;;;;;;;;;5054612;28;20102;-81
2023/03/10 06:16:49;;;;;;;49.30;22.42;;;;;;;;;;5053364;28;20055;-69
2023/03/10 06:19:16;;;;;;;46.00;20.42;;;;;;;;;;5054509;28;20053;-69
2023/03/10 06:21:42;;;;;;;51.92;21.00;;;;;;;;;;5053735;28;20053;-72
2023/03/10 06:24:08;;;;;;;46.40;20.80;;;;;;;;;;5054355;28;20045;-72
2023/03/10 06:26:34;;;;;;;39.90;19.17;;;;;;;;;;5054074;28;20449;-76
2023/03/10 06:29:00;;;;;;;51.67;20.27;;;;;;;;;;5054055;28;20397;-68
2023/03/10 06:31:26;;;;;;;44.65;17.75;;;;;;;;;;5054086;28;20041;-72
2023/03/10 06:33:52;;;;;;;41.80;18.27;;;;;;;;;;5054053;28;20041;-76
2023/03/10 06:36:19;;;;;;;45.55;18.20;;;;;;;;;;5053833;28;20088;-73
2023/03/10 06:38:46;;;;;;;41.42;18.30;;;;;;;;;;5054022;28;20061;-70
2023/03/10 06:41:12;;;;;;;;;;;1.10;99.90;;;;;;5054657;28;20446;-67
2023/03/10 06:43:38;;;;;;;47.90;19.55;;;;;;;;;;5053936;28;19980;-68
2023/03/10 06:46:04;;;;;;;;;;;;;;;;;;5054245;28;20049;-68
2023/03/10 06:48:30;;;;;;;48.70;18.30;;;;;;;;;;5053764;28;19928;-69
2023/03/10 06:50:56;;;;;;;49.95;20.58;;;;;;;;;;5053217;28;20428;-67
2023/03/10 06:53:22;;;;;;;50.20;19.25;;;;;;;;;;5053934;28;20055;-66
2023/03/10 06:56:05;;;;;;;44.28;19.23;;;;;;;;;;5053829;28;20052;-68
2023/03/10 06:58:31;;;;;;;51.13;18.70;;;;;;;;;;5053726;28;20053;-66
2023/03/10 07:00:58;;;;;;;54.72;20.45;;;;;;;;;;5053537;28;20052;-69
2023/03/10 07:03:25;;;;;;;53.28;21.40;;;;;;;;;;5053362;28;20091;-67
2023/03/10 07:05:51;;;;;;;60.80;22.20;;;;;;;;;;5053489;28;20074;-68
2023/03/10 07:08:17;;;;;;;60.42;22.60;;;;;;;;;;5053588;28;20128;-66
2023/03/10 07:10:44;;;;;;;61.88;23.02;;;;;;;;;;5053452;28;20049;-69
2023/03/10 07:13:14;;;;;;;75.72;24.10;;;;;;;;;;5053385;28;20582;-69
2023/03/10 07:15:40;;;;;;;72.18;24.40;;;;;;;;;;5053364;28;20077;-67
2023/03/10 07:18:06;;;;;;;;;;;1.50;99.90;;;;;;5053563;28;20460;-66
2023/03/10 07:20:32;;;;;;;65.55;22.65;;;;;;;;;;5053120;28;20019;-66
2023/03/10 07:22:58;;;;;;;73.35;24.85;;;;;;;;;;5053161;28;20055;-67
2023/03/10 07:25:24;;;;;;;81.57;25.58;;;;;;;;;;5051874;28;20080;-66
2023/03/10 07:27:51;;;;;;;74.20;24.20;;;;;;;;;;5044378;28;20049;-66
2023/03/10 07:30:17;;;;;;;79.68;22.85;;;;;;;;;;5051435;28;20481;-71
2023/03/10 07:32:43;;;;;;;72.03;24.23;;;;;;;;;;5052255;28;20052;-66
2023/03/10 07:35:10;;;;;;;72.32;26.38;;;;;;;;;;5052041;28;20595;-69
2023/03/10 07:37:39;;;;;;;70.38;23.30;;;;;;;;;;5052585;28;20111;-67
2023/03/10 07:40:06;;;;;;;78.45;25.35;;;;;;;;;;5052516;28;20092;-67
2023/03/10 07:42:32;;;;;;;79.00;24.23;;;;;;;;;;5051923;28;20049;-70
2023/03/10 07:44:58;;;;;;;91.35;27.95;;;-1.50;99.90;;;;;;5052444;28;20694;-66
2023/03/10 07:47:24;;;;;;;98.28;31.95;;;;;;;;;;5052586;28;20053;-72
2023/03/10 07:49:50;;;;;;;113.03;35.78;;;;;;;;;;5051701;28;20044;-67
2023/03/10 07:52:18;;;;;;;100.22;31.33;;;;;;;;;;5052322;28;20092;-67
2023/03/10 07:54:44;;;;;;;99.18;31.20;;;;;;;;;;5052552;28;20088;-69
2023/03/10 07:57:13;;;;;;;96.28;30.08;;;;;;;;;;5052322;28;20052;-71
2023/03/10 07:59:39;;;;;;;103.43;31.08;;;;;;;;;;5052022;28;20370;-70
2023/03/10 08:02:06;;;;;;;104.70;30.75;;;;;;;;;;5052220;28;20397;-67
2023/03/10 08:04:32;;;;;;;106.53;31.42;;;;;;;;;;5044756;28;20045;-67
2023/03/10 08:07:01;;;;;;;91.15;29.23;;;;;;;;;;5032191;28;20124;-67
2023/03/10 08:09:28;;;;;;;94.90;28.20;;;;;;;;;;5036938;28;20037;-65
2023/03/10 08:11:54;;;;;;;89.95;27.27;;;;;;;;;;5042774;28;20102;-67
2023/03/10 08:14:22;;;;;;;98.85;28.58;;;;;;;;;;5037693;28;20055;-66
2023/03/10 08:16:49;;;;;;;107.40;27.75;;;;;;;;;;5035765;28;20056;-67
2023/03/10 08:19:15;;;;;;;79.63;27.63;;;;;;;;;;5031166;28;20452;-66
2023/03/10 08:21:42;;;;;;;95.88;27.38;;;;;;;;;;5036561;28;20068;-67
2023/03/10 08:24:08;;;;;;;86.60;28.38;;;;;;;;;;5031483;28;20135;-68
2023/03/10 08:26:34;;;;;;;87.32;27.30;;;;;;;;;;5037601;28;20087;-67
2023/03/10 08:29:00;;;;;;;91.78;29.98;;;3.20;99.90;;;;;;5051044;28;20128;-66
2023/03/10 08:31:26;;;;;;;75.70;25.63;;;;;;;;;;5051662;28;20452;-67
2023/03/10 08:33:56;;;;;;;85.57;27.63;;;;;;;;;;5051475;28;20059;-66
2023/03/10 08:36:24;;;;;;;81.30;26.30;;;;;;;;;;5051375;28;20045;-66
2023/03/10 08:38:51;;;;;;;70.75;26.48;;;;;;;;;;5051365;28;20064;-66
2023/03/10 08:41:35;;;;;;;77.60;27.98;;;-0.80;99.90;;;;;;5051169;28;20397;-66
2023/03/10 08:44:01;;;;;;;69.35;28.10;;;;;;;;;;5050284;28;20056;-67
2023/03/10 08:46:28;;;;;;;76.93;27.80;;;;;;;;;;5050918;28;20547;-66
2023/03/10 08:48:54;;;;;;;75.70;25.67;;;;;;;;;;5050260;28;20047;-67
2023/03/10 08:51:20;;;;;;;;;;;-0.80;99.90;;;;;;5051521;28;20401;-69
2023/03/10 08:53:47;;;;;;;66.15;24.17;;;;;;;;;;5050265;28;19924;-66
2023/03/10 08:56:14;;;;;;;67.50;24.65;;;;;;;;;;5051384;28;20441;-66
2023/03/10 08:58:40;;;;;;;65.60;23.45;;;;;;;;;;5051164;28;20056;-70
2023/03/10 09:01:06;;;;;;;50.63;19.23;;;;;;;;;;5042376;28;20063;-68
2023/03/10 09:03:35;;;;;;;57.83;21.80;;;;;;;;;;5064676;28;20867;-68
2023/03/10 09:06:01;;;;;;;60.53;23.10;;;;;;;;;;5049787;28;20060;-70
2023/03/10 09:08:27;;;;;;;64.32;24.38;;;;;;;;;;5051161;28;20544;-69
2023/03/10 09:10:53;;;;;;;61.83;21.20;;;;;;;;;;5051059;28;20049;-66
2023/03/10 09:13:19;;;;;;;61.08;21.65;;;;;;;;;;5051469;28;20370;-69
2023/03/10 09:15:45;;;;;;;58.35;23.40;;;;;;;;;;5050916;28;20048;-70
2023/03/10 09:18:13;;;;;;;66.47;24.95;;;;;;;;;;5051218;28;20056;-67
2023/03/10 09:20:40;;;;;;;65.00;24.13;;;;;;;;;;5051280;28;20052;-67
2023/03/10 09:23:06;;;;;;;61.63;23.45;;;;;;;;;;5051088;28;20121;-70
2023/03/10 09:25:32;;;;;;;;;;;;;;;;;;5050834;28;20721;-67
2023/03/10 09:27:58;;;;;;;72.88;25.23;;;;;;;;;;5051296;28;19925;-69
2023/03/10 09:30:25;;;;;;;77.60;26.27;;;;;;;;;;5050944;28;20126;-67
2023/03/10 09:32:51;;;;;;;91.22;25.73;;;;;;;;;;5033484;28;20493;-68
2023/03/10 09:35:17;;;;;;;78.35;27.73;;;;;;;;;;5051197;28;20520;-66
2023/03/10 09:37:43;;;;;;;72.63;27.00;;;;;;;;;;5050827;28;20496;-66
2023/03/10 09:40:15;;;;;;;81.07;28.98;;;;;;;;;;5051285;28;20065;-67
2023/03/10 09:42:46;;;;;;;81.10;28.85;;;;;;;;;;5051228;28;20045;-66
2023/03/10 09:45:19;;;;;;;87.50;31.05;;;;;;;;;;5050721;28;20055;-71
2023/03/10 09:48:15;;;;;;;84.22;29.45;;;;;;;;;;5051022;28;20521;-69
2023/03/10 09:50:45;;;;;;;82.38;30.42;;;;;;;;;;5048538;28;20598;-67
2023/03/10 09:53:14;;;;;;;83.72;29.17;;;;;;;;;;5051076;28;20076;-66
2023/03/10 09:55:42;;;;;;;82.53;29.05;;;;;;;;;;5043635;28;20142;-70
2023/03/10 09:58:12;;;;;;;82.68;29.65;;;;;;;;;;5054256;28;20053;-66
2023/03/10 10:00:43;;;;;;;76.13;28.45;;;;;;;;;;5052685;28;20059;-68
2023/03/10 10:03:15;;;;;;;78.45;28.48;;;;;;;;;;5054266;28;20079;-68
2023/03/10 10:05:41;;;;;;;71.93;27.17;;;;;;;;;;5054291;28;20366;-69
2023/03/10 10:08:22;;;;;;;71.40;27.67;;;;;;;;;;5054390;28;20045;-68
2023/03/10 10:10:50;;;;;;;75.15;28.50;;;;;;;;;;5052775;28;20444;-67
2023/03/10 10:13:16;;;;;;;83.47;30.08;;;3.70;99.90;;;;;;5054107;28;20522;-72
2023/03/10 10:15:44;;;;;;;81.68;31.13;;;;;;;;;;5053923;28;20084;-70
2023/03/10 10:18:23;;;;;;;78.63;29.38;;;-1.10;99.90;;;;;;5054170;28;20045;-67
2023/03/10 10:20:57;;;;;;;79.38;29.52;;;;;;;;;;5054254;28;20045;-69
2023/03/10 10:23:23;;;;;;;76.07;28.52;;;;;;;;;;5054030;28;20053;-67
2023/03/10 10:25:50;;;;;;;80.18;32.35;;;;;;;;;;5052540;28;20127;-70
2023/03/10 10:28:16;;;;;;;;;;;;;;;;;;5054245;28;20713;-68
2023/03/10 10:30:42;;;;;;;71.07;31.65;;;;;;;;;;5054036;28;19951;-71
2023/03/10 10:33:13;;;;;;;71.95;31.77;;;-0.90;99.90;;;;;;5053956;28;20128;-69
2023/03/10 10:35:58;;;;;;;82.47;31.40;;;-0.70;99.90;;;;;;5053756;28;20044;-68
2023/03/10 10:38:26;;;;;;;78.13;33.05;;;;;;;;;;5053119;28;20049;-75
2023/03/10 10:41:03;;;;;;;74.03;30.95;;;;;;;;;;5053429;28;20127;-66
2023/03/10 10:43:30;;;;;;;74.93;30.35;;;;;;;;;;5053611;28;20072;-68
2023/03/10 10:46:03;;;;;;;82.18;33.08;;;-0.10;99.90;;;;;;5053426;28;20431;-68
2023/03/10 10:48:54;;;;;;;78.35;31.92;;;4.50;99.90;;;;;;5035937;28;20053;-69
2023/03/10 10:51:28;;;;;;;74.45;30.02;;;;;;;;;;5053156;28;20056;-69
2023/03/10 10:53:55;;;;;;;83.70;30.35;;;;;;;;;;5053253;28;20045;-70
2023/03/10 10:56:23;;;;;;;78.30;31.65;;;;;;;;;;5053493;28;20421;-71
2023/03/10 10:59:18;;;;;;;74.78;31.65;;;-0.10;99.90;;;;;;5053036;28;20052;-68
2023/03/10 11:01:58;;;;;;;81.65;30.88;;;;;;;;;;5052768;28;20467;-66
2023/03/10 11:04:25;;;;;;;72.50;31.77;;;;;;;;;;5053045;28;20057;-66
2023/03/10 11:06:52;;;;;;;75.70;30.33;;;;;;;;;;5051924;28;20734;-68
2023/03/10 11:09:22;;;;;;;;;;;-0.10;99.90;;;;;;5052269;28;20128;-68
2023/03/10 11:12:07;;;;;;;66.53;28.88;;;;;;;;;;5052888;28;20285;-70
2023/03/10 11:15:06;;;;;;;57.88;25.83;;;4.30;99.90;;;;;;5052259;28;20489;-69
2023/03/10 11:18:13;;;;;;;64.40;27.30;;;4.30;99.90;;;;;;5053256;28;20075;-70
2023/03/10 11:20:48;;;;;;;62.47;26.52;;;5.10;99.90;;;;;;5052474;28;20120;-70
2023/03/10 11:23:35;;;;;;;63.03;24.52;;;4.10;99.90;;;;;;5052626;28;20507;-68
2023/03/10 11:26:01;;;;;;;;;;;;;;;;;;5052476;28;20072;-69
2023/03/10 11:28:36;;;;;;;55.85;24.35;;;;;;;;;;5052888;28;19928;-72
2023/03/10 11:31:15;;;;;;;57.75;22.10;;;;;;;;;;5051498;28;20076;-70
2023/03/10 11:33:50;;;;;;;55.45;21.45;;;;;;;;;;5052684;28;20078;-70
2023/03/10 11:36:25;;;;;;;52.20;21.52;;;;;;;;;;5052562;28;20052;-70
2023/03/10 11:38:59;;;;;;;47.65;20.85;;;0.40;99.90;;;;;;5052503;28;20064;-69
2023/03/10 11:41:29;;;;;;;46.80;21.25;;;4.10;99.90;;;;;;5051468;28;20508;-73
2023/03/10 11:44:13;;;;;;;47.60;21.92;;;3.40;99.90;;;;;;5051571;28;20057;-70
2023/03/10 11:47:04;;;;;;;48.33;21.08;;;4.10;99.90;;;;;;5052803;28;20049;-70
2023/03/10 11:49:42;;;;;;;49.20;21.05;;;0.00;99.90;;;;;;5050027;28;20079;-70
2023/03/10 11:52:16;;;;;;;48.85;21.00;;;4.50;99.90;;;;;;5051250;28;20052;-73
2023/03/10 11:54:47;;;;;;;50.53;20.73;;;4.70;99.90;;;;;;5052471;28;20495;-76
2023/03/10 11:57:15;;;;;;;43.83;21.35;;;;;;;;;;5050873;28;20049;-70
2023/03/10 11:59:46;;;;;;;49.33;21.33;;;;;;;;;;5052101;28;20156;-73
2023/03/10 12:02:12;;;;;;;44.22;21.55;;;;;;;;;;5052423;28;20071;-69
2023/03/10 12:04:48;;;;;;;48.38;19.55;;;0.40;99.90;;;;;;5052005;28;20481;-72
2023/03/10 12:07:35;;;;;;;46.53;19.83;;;0.90;99.90;;;;;;5052145;28;20178;-69
2023/03/10 12:10:12;;;;;;;43.35;19.52;;;1.50;99.90;;;;;;5051481;28;20041;-69
2023/03/10 12:12:43;;;;;;;44.85;19.27;;;5.10;99.90;;;;;;5051936;28;20049;-69
2023/03/10 12:15:21;;;;;;;42.13;19.00;;;1.30;99.90;;;;;;5052209;28;20499;-68
2023/03/10 12:17:48;;;;;;;42.63;20.13;;;;;;;;;;5050709;28;20060;-69
2023/03/10 12:20:17;;;;;;;35.20;17.33;;;;;;;;;;5051649;28;20049;-69
2023/03/10 12:22:57;;;;;;;37.35;17.48;;;;;;;;;;5050655;28;20056;-70
2023/03/10 12:25:28;;;;;;;33.53;18.13;;;;;;;;;;5051575;28;20056;-69
2023/03/10 12:28:16;;;;;;;40.30;18.15;;;3.10;99.90;;;;;;5051787;28;20049;-68
2023/03/10 12:30:46;;;;;;;40.28;18.30;;;4.80;99.90;;;;;;5051185;28;20053;-68
2023/03/10 12:33:43;;;;;;;36.83;17.20;;;2.80;99.90;;;;;;5050544;28;20045;-69
2023/03/10 12:36:09;;;;;;;33.70;16.60;;;;;;;;;;5050870;28;20053;-71
2023/03/10 12:38:45;;;;;;;32.53;16.58;;;4.00;99.90;;;;;;5044599;28;20052;-73
2023/03/10 12:41:20;;;;;;;36.13;16.65;;;4.10;99.90;;;;;;5037425;28;20056;-70
2023/03/10 12:43:52;;;;;;;28.27;14.43;;;;;;;;;;5031208;28;20060;-69
2023/03/10 12:46:26;;;;;;;36.15;16.15;;;3.30;99.90;;;;;;5041068;28;20118;-71
2023/03/10 12:49:04;;;;;;;26.38;14.00;;;;;;;;;;5037745;28;20048;-70
2023/03/10 12:51:35;;;;;;;35.17;14.55;;;;;;;;;;5036867;28;20076;-71
2023/03/10 12:54:14;;;;;;;32.95;15.50;;;4.50;99.90;;;;;;5030720;28;20235;-70
2023/03/10 12:57:03;;;;;;;34.22;15.77;;;3.70;99.90;;;;;;5040421;28;20490;-70
2023/03/10 12:59:38;;;;;;;32.50;15.85;;;;;;;;;;5030856;28;20494;-76
2023/03/10 13:02:09;;;;;;;28.38;14.82;;;;;;;;;;5030887;28;20060;-71
2023/03/10 13:04:35;;;;;;;28.08;13.43;;;2.20;99.90;;;;;;5030747;28;20584;-73
2023/03/10 13:07:02;;;;;;;29.63;15.32;;;;;;;;;;5040465;28;20056;-70
2023/03/10 13:09:30;;;;;;;30.52;15.02;;;;;;;;;;5030179;28;20053;-71
2023/03/10 13:11:59;;;;;;;25.17;13.48;;;;;;;;;;5032378;28;20045;-71
2023/03/10 13:14:36;;;;;;;29.20;13.75;;;;;;;;;;5046130;28;20124;-71
2023/03/10 13:17:03;;;;;;;26.48;13.52;;;;;;;;;;5038900;28;20481;-71
2023/03/10 13:19:29;;;;;;;;;;;;;;;;;;5030206;28;20045;-70
2023/03/10 13:21:55;;;;;;;31.20;16.15;;;2.60;99.90;;;;;;5031813;28;20377;-69
2023/03/10 13:24:24;;;;;;;28.20;15.68;;;;;;;;;;5030226;28;20079;-69
2023/03/10 13:27:07;;;;;;;33.47;14.00;;;;;;;;;;5040239;28;20063;-69
2023/03/10 13:29:33;;;;;;;26.98;12.98;;;;;;;;;;5030632;28;20042;-70
2023/03/10 13:31:59;;;;;;;25.33;14.20;;;;;;;;;;5035508;28;20104;-71
2023/03/10 13:34:28;;;;;;;28.10;12.90;;;;;;;;;;5034127;28;20401;-72
2023/03/10 13:37:01;;;;;;;27.67;13.98;;;;;;;;;;5042347;28;20528;-69
2023/03/10 13:39:27;;;;;;;25.17;14.85;;;;;;;;;;5033297;28;20053;-69
2023/03/10 13:41:57;;;;;;;26.60;13.98;;;3.90;99.90;;;;;;5043616;28;20040;-71
2023/03/10 13:44:34;;;;;;;28.08;14.30;;;;;;;;;;5048130;28;20052;-71
2023/03/10 13:47:03;;;;;;;25.70;14.32;;;;;;;;;;5037577;28;20041;-73
2023/03/10 13:49:33;;;;;;;26.23;14.63;;;;;;;;;;5043558;28;20072;-71
2023/03/10 13:52:00;;;;;;;28.73;13.90;;;;;;;;;;5034038;28;20121;-71
2023/03/10 13:54:31;;;;;;;27.88;13.82;;;;;;;;;;5035296;28;20056;-69
2023/03/10 13:57:01;;;;;;;26.20;14.07;;;3.40;99.90;;;;;;5034121;28;20129;-71
2023/03/10 13:59:29;;;;;;;29.77;14.32;;;;;;;;;;5045195;28;20045;-73
2023/03/10 14:01:57;;;;;;;26.45;14.23;;;2.70;99.90;;;;;;5045993;28;20397;-69